CheckWX is a tool to help pilots better visualize weather data.  It is not intended as a substitute for an official pre-flight weather briefing.

15:28:18 UTC

KBMG METAR
Monroe County Airport
Bloomington, Indiana, USA
Current

35 mins ago

KBMG 171453Z VRB04KT 10SM CLR 09/04 A3006 RMK AO2 SLP181 T00890039 51012
Observed
Oct-17 @ 14:53 UTC
Wind
  • Variable at 4 KTS
Visibility
10 SM
Flight Rules
VFR
Cloud Levels
  • Clear skies
Temperature
C / 48°F
Dewpoint
C / 39°F
Humidity
71%
Altimeter
30.06" Hg
Pressure
1017.92 hPa
Previous

2 hours ago

KBMG 171353Z 28004KT 10SM CLR 06/03 A3006 RMK AO2 SLP180 T00610033
Observed
Oct-17 @ 13:53 UTC
Wind
  • 280° at 4 KTS
Visibility
10 SM
Flight Rules
VFR
Cloud Levels
  • Clear skies
Temperature
C / 43°F
Dewpoint
C / 37°F
Humidity
81%
Altimeter
30.06" Hg
Pressure
1017.92 hPa
Previous

3 hours ago

KBMG 171253Z 27004KT 10SM CLR 04/03 A3005 RMK AO2 SLP177 T00440028
Observed
Oct-17 @ 12:53 UTC
Wind
  • 270° at 4 KTS
Visibility
10 SM
Flight Rules
VFR
Cloud Levels
  • Clear skies
Temperature
C / 39°F
Dewpoint
C / 37°F
Humidity
93%
Altimeter
30.05" Hg
Pressure
1017.62 hPa